Time;durP1;ratioP1;P1;durP2;ratioP2;P2;SDS_P1;SDS_P2;PMS_P1;PMS_P2;Temp;Humidity;BMP_temperature;BMP_pressure;BME280_temperature;BME280_humidity;BME280_pressure;Samples;Min_cycle;Max_cycle;Signal;HPM_P1;HPM_P2
2022/07/29 00:01:17;;;;;;;6.70;2.30;;;;;;;15.34;53.68;100640.38;4994107;28;20133;-69
2022/07/29 00:03:42;;;;;;;2.97;2.20;;;;;;;15.32;53.77;100637.25;4994185;28;20273;-68
2022/07/29 00:06:07;;;;;;;3.00;2.10;;;;;;;15.26;54.07;100632.25;4994281;28;20030;-68
2022/07/29 00:08:33;;;;;;;3.20;2.03;;;;;;;15.26;54.19;100640.09;4994531;28;20542;-68
2022/07/29 00:10:59;;;;;;;2.10;1.83;;;;;;;15.09;53.87;100613.31;4994567;28;20415;-68
2022/07/29 00:13:26;;;;;;;3.35;1.90;;;;;;;15.20;54.10;100642.16;4995176;28;20110;-68
2022/07/29 00:15:53;;;;;;;3.70;2.00;;;;;;;15.19;54.00;100641.38;4994833;28;20031;-68
2022/07/29 00:18:19;;;;;;;5.30;2.78;;;;;;;15.19;54.12;100638.50;4994853;28;20026;-68
2022/07/29 00:20:49;;;;;;;5.70;2.63;;;;;;;15.18;54.64;100639.78;4994152;28;20072;-68
2022/07/29 00:23:15;;;;;;;4.32;2.60;;;;;;;15.14;54.74;100644.22;4994557;28;20026;-69
2022/07/29 00:25:41;;;;;;;6.00;2.22;;;;;;;15.10;54.48;100643.69;4995109;28;20038;-68
2022/07/29 00:28:07;;;;;;;2.67;2.20;;;;;;;15.12;55.23;100641.84;4994375;28;20042;-68
2022/07/29 00:30:33;;;;;;;4.97;2.55;;;;;;;15.07;54.42;100639.75;4993246;28;20032;-67
2022/07/29 00:32:59;;;;;;;3.75;2.50;;;;;;;15.08;54.86;100641.31;4994792;28;20049;-68
2022/07/29 00:38:14;;;;;;;3.88;2.22;;;;;;;15.03;55.31;100630.56;4994775;28;20042;-68
2022/07/29 00:41:01;;;;;;;5.85;2.20;;;;;;;15.00;54.65;100631.59;4994294;28;20048;-67
2022/07/29 00:43:46;;;;;;;5.50;2.60;;;;;;;14.97;54.95;100628.97;4993913;28;20057;-68
2022/07/29 00:46:13;;;;;;;5.15;2.47;;;;;;;14.94;55.14;100632.88;4994290;28;20030;-68
2022/07/29 00:48:39;;;;;;;4.35;2.33;;;;;;;14.91;55.15;100620.31;4994399;28;20027;-67
2022/07/29 00:51:11;;;;;;;3.42;2.60;;;;;;;14.90;54.83;100621.63;4994316;28;20037;-68
2022/07/29 00:53:38;;;;;;;3.58;2.50;;;;;;;14.90;55.27;100624.50;5009304;28;20022;-67
2022/07/29 00:56:03;;;;;;;7.10;2.20;;;;;;;14.88;55.25;100620.53;4994074;28;20440;-68
2022/07/29 00:58:46;;;;;;;5.57;2.50;;;;;;;14.89;55.13;100628.66;4994313;28;20058;-68
2022/07/29 01:01:12;;;;;;;9.02;2.60;;;;;;;14.91;55.42;100622.41;5009490;28;20034;-68
2022/07/29 01:03:39;;;;;;;5.53;2.03;;;;;;;14.89;55.33;100625.78;4993963;28;20025;-68
2022/07/29 01:06:05;;;;;;;3.90;2.15;;;;;;;14.87;55.46;100627.63;4994332;28;20026;-68
2022/07/29 01:08:31;;;;;;;4.97;2.47;;;;;;;14.86;55.64;100620.28;5009181;28;20392;-67
2022/07/29 01:11:02;;;;;;;5.53;2.60;;;;;;;14.84;55.70;100621.59;5009401;28;20022;-68
2022/07/29 01:13:27;;;;;;;3.33;2.47;;;;;;;14.83;55.64;100627.84;4994022;28;20061;-69
2022/07/29 01:16:07;;;;;;;4.68;3.25;;;;;;;14.82;55.92;100623.41;5009117;28;20432;-68
2022/07/29 01:18:44;;;;;;;3.85;2.42;;;;;;;14.79;56.10;100618.66;5009211;28;20156;-68
2022/07/29 01:21:37;;;;;;;3.70;2.30;;;;;;;14.76;56.06;100628.34;5007820;28;20051;-68
2022/07/29 01:24:24;;;;;;;6.18;2.75;;;;;;;14.73;56.52;100627.25;4991284;28;20357;-68
2022/07/29 01:27:06;;;;;;;3.83;3.35;;;;;;;14.69;56.73;100620.19;4992967;28;20431;-68
2022/07/29 01:29:44;;;;;;;13.70;2.95;;;;;;;14.66;56.91;100612.59;4992423;28;20043;-68
2022/07/29 01:32:15;;;;;;;6.30;2.67;;;;;;;14.62;57.12;100617.81;4991375;28;20085;-68
2022/07/29 01:35:12;;;;;;;5.85;2.63;;;;;;;14.56;57.29;100608.31;5007828;28;20033;-69
2022/07/29 01:37:44;;;;;;;4.85;3.10;;;;;;;14.55;57.40;100607.53;4992691;28;20022;-68
2022/07/29 01:40:38;;;;;;;5.18;3.08;;;;;;;14.53;57.70;100610.13;4993616;28;20026;-68
2022/07/29 01:43:10;;;;;;;5.50;2.30;;;;;;;14.50;58.08;100608.28;4993446;28;20044;-68
2022/07/29 01:45:45;;;;;;;4.30;2.00;;;;;;;14.46;57.78;100599.09;5007080;28;20034;-68
2022/07/29 01:48:16;;;;;;;2.38;2.17;;;;;;;14.35;58.37;100585.44;5010892;28;20030;-67
2022/07/29 01:50:48;;;;;;;2.97;2.30;;;;;;;14.43;58.16;100606.66;5011095;28;20034;-68
2022/07/29 01:53:21;;;;;;;6.25;2.33;;;;;;;14.41;58.39;100603.53;4996212;28;20133;-68
2022/07/29 01:55:48;;;;;;;5.25;2.45;;;;;;;14.38;58.57;100604.53;4995465;28;20034;-67
2022/07/29 01:58:23;;;;;;;3.85;2.40;;;;;;;14.37;58.40;100599.31;5011469;28;20015;-68
2022/07/29 02:00:49;;;;;;;3.15;2.45;;;;;;;14.35;58.72;100590.41;5012615;28;20037;-67
2022/07/29 02:03:31;;;;;;;6.22;2.45;;;;;;;14.32;59.37;100600.84;4994897;28;20463;-68
2022/07/29 02:05:58;;;;;;;4.70;2.25;;;;;;;14.29;59.52;100593.22;5010759;28;20049;-68
2022/07/29 02:08:24;;;;;;;6.03;2.80;;;;;;;14.24;59.35;100587.44;5012398;28;20030;-68
2022/07/29 02:10:52;;;;;;;9.13;2.90;;;;;;;14.23;59.37;100589.53;4995794;28;20430;-68
2022/07/29 02:13:20;;;;;;;7.75;3.00;;;;;;;14.22;59.53;100585.09;4995983;28;20034;-67
2022/07/29 02:15:46;;;;;;;4.85;2.78;;;;;;;14.22;59.71;100585.09;5011929;28;20482;-68
2022/07/29 02:18:37;;;;;;;5.18;2.83;;;;;;;14.21;59.65;100588.47;4997088;28;20065;-67
2022/07/29 02:21:24;;;;;;;3.83;2.53;;;;;;;14.18;59.92;100584.53;4996711;28;20046;-68
2022/07/29 02:23:52;;;;;;;5.25;2.92;;;;;;;14.16;59.86;100581.38;5011420;28;20145;-68
2022/07/29 02:26:24;;;;;;;3.78;2.75;;;;;;;14.13;60.22;100576.66;4995764;28;20034;-68
2022/07/29 02:28:56;;;;;;;5.28;2.33;;;;;;;14.11;59.96;100589.97;4995637;28;20113;-68
2022/07/29 02:31:26;;;;;;;4.65;2.47;;;;;;;14.07;60.20;100575.84;4994372;28;20077;-68
2022/07/29 02:33:53;;;;;;;4.18;3.13;;;;;;;14.05;60.40;100584.16;4995421;28;20053;-68
2022/07/29 02:36:22;;;;;;;5.43;2.58;;;;;;;14.05;60.49;100587.03;5011352;28;20084;-69
2022/07/29 02:38:50;;;;;;;4.28;2.38;;;;;;;14.01;60.83;100583.63;4995665;28;20091;-69
2022/07/29 02:41:31;;;;;;;4.97;2.90;;;;;;;14.01;60.97;100585.69;4995333;28;20468;-68
2022/07/29 02:44:05;;;;;;;3.75;2.75;;;;;;;13.94;60.95;100587.72;4997246;28;20030;-69
2022/07/29 02:46:34;;;;;;;7.60;3.13;;;;;;;13.93;61.31;100586.19;4995195;28;20464;-68
2022/07/29 02:49:23;;;;;;;4.20;2.80;;;;;;;13.89;61.48;100582.72;4996170;28;20034;-68
2022/07/29 02:51:54;;;;;;;2.78;2.33;;;;;;;13.86;61.57;100578.00;4995191;28;20057;-68
2022/07/29 02:54:26;;;;;;;2.90;2.28;;;;;;;13.86;61.86;100582.97;4995301;28;20030;-69
2022/07/29 02:56:54;;;;;;;5.30;2.35;;;;;;;13.82;61.87;100577.47;4995993;28;20089;-68
2022/07/29 02:59:24;;;;;;;6.22;2.58;;;;;;;13.82;61.91;100586.06;5011175;28;20026;-67
2022/07/29 03:01:50;;;;;;;4.45;2.50;;;;;;;13.82;62.02;100585.28;4996040;28;20490;-68
2022/07/29 03:04:32;;;;;;;4.38;2.33;;;;;;;13.81;62.02;100577.97;4994697;28;20027;-68
2022/07/29 03:07:03;;;;;;;7.72;3.72;;;;;;;13.80;62.31;100585.00;5011500;28;20030;-68
2022/07/29 03:09:29;;;;;;;6.68;2.63;;;;;;;13.77;62.47;100578.19;4994980;28;20427;-68
2022/07/29 03:11:56;;;;;;;4.38;2.60;;;;;;;13.77;62.45;100586.03;4978396;28;20038;-67
2022/07/29 03:14:22;;;;;;;5.10;2.50;;;;;;;13.76;62.83;100582.34;5010946;28;20534;-67
2022/07/29 03:17:04;;;;;;;4.63;2.53;;;;;;;13.76;62.94;100593.06;4994769;28;20038;-67
2022/07/29 03:19:31;;;;;;;3.07;2.17;;;;;;;13.73;62.96;100591.22;4995339;28;20527;-68
2022/07/29 03:21:58;;;;;;;6.65;2.60;;;;;;;13.74;63.06;100581.31;4994243;28;20514;-68
2022/07/29 03:24:34;;;;;;;3.35;2.20;;;;;;;13.76;63.12;100584.44;4995465;28;20030;-68
2022/07/29 03:27:01;;;;;;;6.10;2.65;;;;;;;13.77;63.21;100588.91;4995444;28;20109;-68
2022/07/29 03:29:27;;;;;;;6.30;2.63;;;;;;;13.77;63.45;100589.69;4994346;28;20038;-68
2022/07/29 03:31:53;;;;;;;4.78;2.67;;;;;;;13.78;63.20;100588.41;4995753;28;20518;-69
2022/07/29 03:34:20;;;;;;;3.95;2.65;;;;;;;13.77;62.90;100581.06;5010563;28;20435;-68
2022/07/29 03:36:47;;;;;;;5.10;2.58;;;;;;;13.79;63.24;100589.16;4977827;28;20088;-68
2022/07/29 03:39:16;;;;;;;5.45;2.42;;;;;;;13.79;63.35;100589.16;4994392;28;20038;-69
2022/07/29 03:41:44;;;;;;;8.05;2.63;;;;;;;13.79;63.18;100589.16;5009817;28;20125;-68
2022/07/29 03:44:11;;;;;;;4.40;3.38;;;;;;;13.80;63.56;100599.34;5010332;28;20384;-69
2022/07/29 03:46:37;;;;;;;4.82;2.78;;;;;;;13.82;63.73;100594.69;4994148;28;20033;-68
2022/07/29 03:49:04;;;;;;;3.78;2.20;;;;;;;13.84;63.38;100592.09;5010549;28;20046;-68
2022/07/29 03:51:30;;;;;;;6.28;2.90;;;;;;;13.89;63.36;100605.72;4995056;28;20069;-68
2022/07/29 03:53:57;;;;;;;3.85;2.92;;;;;;;13.93;63.41;100603.41;4995256;28;20034;-69
2022/07/29 03:56:26;;;;;;;12.93;3.03;;;;;;;13.99;63.31;100603.44;4995281;28;20037;-68
2022/07/29 03:58:52;;;;;;;4.40;2.70;;;;;;;13.96;63.28;100593.78;4995038;28;20046;-68
2022/07/29 04:01:23;;;;;;;4.25;2.63;;;;;;;14.05;63.34;100606.38;5010026;28;20425;-68
2022/07/29 04:03:51;;;;;;;3.65;2.80;;;;;;;14.10;63.52;100600.66;4993455;28;20117;-68
2022/07/29 04:06:17;;;;;;;5.05;3.03;;;;;;;14.15;63.01;100614.28;4994957;28;20026;-67
2022/07/29 04:08:43;;;;;;;3.70;2.60;;;;;;;14.21;62.84;100611.47;4994691;28;20023;-69
2022/07/29 04:11:08;;;;;;;5.15;2.47;;;;;;;14.26;62.79;100599.22;4994389;28;20371;-68
2022/07/29 04:13:35;;;;;;;5.10;2.65;;;;;;;14.33;62.46;100601.66;4994775;28;20101;-67
2022/07/29 04:16:00;;;;;;;3.40;2.22;;;;;;;14.39;62.56;100599.56;4993555;28;20026;-68
2022/07/29 04:18:27;;;;;;;3.28;2.40;;;;;;;14.46;62.19;100595.44;4994517;28;20093;-69
2022/07/29 04:20:53;;;;;;;5.80;3.10;;;;;;;14.54;61.91;100596.53;4994916;28;20454;-68
2022/07/29 04:23:20;;;;;;;5.53;3.65;;;;;;;14.62;61.83;100598.47;4994410;28;20373;-67
2022/07/29 04:25:47;;;;;;;4.15;2.10;;;;;;;14.69;61.60;100605.81;4994441;28;20042;-69
2022/07/29 04:28:13;;;;;;;7.25;2.80;;;;;;;14.74;61.32;100607.91;4993981;28;20026;-68
2022/07/29 04:30:40;;;;;;;5.30;2.50;;;;;;;14.80;61.08;100597.25;4994186;28;20376;-69
2022/07/29 04:33:13;;;;;;;3.95;2.88;;;;;;;14.90;61.12;100592.84;5009329;28;20063;-68
2022/07/29 04:35:39;;;;;;;5.47;2.42;;;;;;;15.04;60.86;100594.72;4993401;28;20380;-68
2022/07/29 04:38:06;;;;;;;4.25;2.30;;;;;;;15.22;60.32;100602.91;4994248;28;20081;-68
2022/07/29 04:40:36;;;;;;;9.50;2.80;;;;;;;15.45;59.94;100597.22;4994054;28;20046;-68
2022/07/29 04:43:02;;;;;;;6.57;2.30;;;;;;;15.74;58.95;100602.53;4993123;28;20038;-68
2022/07/29 04:45:28;;;;;;;3.95;2.35;;;;;;;16.03;58.17;100604.13;4994436;28;20029;-68
2022/07/29 04:47:54;;;;;;;4.82;2.40;;;;;;;16.30;57.45;100611.22;5009176;28;20030;-67
2022/07/29 04:50:32;;;;;;;4.85;2.28;;;;;;;16.63;55.60;100611.19;5009243;28;20026;-68
2022/07/29 04:52:59;;;;;;;5.05;2.40;;;;;;;16.91;54.84;100611.88;4994108;28;20467;-67
2022/07/29 04:55:26;;;;;;;3.15;2.25;;;;;;;17.17;53.25;100613.63;4993881;28;20510;-68
2022/07/29 04:57:55;;;;;;;4.75;2.00;;;;;;;17.45;52.78;100617.19;4994545;28;20120;-68
2022/07/29 05:00:20;;;;;;;3.20;2.38;;;;;;;17.72;51.94;100629.91;4995956;28;20554;-68
2022/07/29 05:02:46;;;;;;;5.80;2.10;;;;;;;17.96;51.35;100611.88;4994231;28;20153;-67
2022/07/29 05:05:12;;;;;;;2.53;2.00;;;;;;;18.18;51.12;100629.81;4993948;28;20476;-67
2022/07/29 05:07:37;;;;;;;5.13;2.08;;;;;;;18.40;50.27;100625.19;4993680;28;20081;-67
2022/07/29 05:10:03;;;;;;;6.18;2.92;;;;;;;18.60;50.01;100631.31;4993802;28;20328;-67
2022/07/29 05:12:28;;;;;;;7.45;3.20;;;;;;;18.85;49.19;100626.31;4993888;28;20104;-68
2022/07/29 05:14:57;;;;;;;5.68;2.70;;;;;;;18.97;48.24;100636.44;4993533;28;20480;-67
2022/07/29 05:17:23;;;;;;;3.20;2.05;;;;;;;19.12;48.87;100644.69;4993732;28;20558;-68
2022/07/29 05:19:51;;;;;;;7.90;2.65;;;;;;;19.23;48.40;100633.00;4993714;28;20046;-69
2022/07/29 05:22:20;;;;;;;7.10;2.85;;;;;;;19.31;48.37;100638.97;4996005;28;20026;-68
2022/07/29 05:24:47;;;;;;;2.97;1.90;;;;;;;19.22;48.12;100631.44;4997848;28;20087;-66
2022/07/29 05:27:12;;;;;;;4.78;2.28;;;;;;;19.17;48.20;100629.38;4997593;28;20532;-67
2022/07/29 05:29:39;;;;;;;3.55;2.20;;;;;;;19.12;48.42;100641.78;4997705;28;20050;-67
2022/07/29 05:32:04;;;;;;;6.30;2.60;;;;;;;19.18;48.29;100645.44;4996577;28;20018;-68
2022/07/29 05:34:30;;;;;;;7.57;2.33;;;;;;;19.32;48.41;100631.84;4997005;28;20349;-70
2022/07/29 05:36:56;;;;;;;4.97;1.90;;;;;;;19.49;47.71;100629.50;4997487;28;20034;-67
2022/07/29 05:39:22;;;;;;;11.15;3.60;;;;;;;19.68;47.32;100629.50;4997412;28;20030;-67
2022/07/29 05:41:47;;;;;;;6.25;1.92;;;;;;;19.90;46.84;100632.09;4997100;28;20026;-68
2022/07/29 05:44:13;;;;;;;6.32;1.98;;;;;;;20.03;45.72;100623.47;4997478;28;20030;-67
2022/07/29 05:46:39;;;;;;;7.53;1.92;;;;;;;20.14;45.32;100623.28;4997252;28;20022;-67
2022/07/29 05:49:06;;;;;;;4.40;2.17;;;;;;;20.25;44.88;100631.03;4997177;28;20026;-67
2022/07/29 05:51:34;;;;;;;4.85;2.03;;;;;;;20.40;44.96;100629.16;4997260;28;20126;-68
2022/07/29 05:53:59;;;;;;;8.38;2.90;;;;;;;20.62;44.26;100630.09;4997411;28;20018;-68
2022/07/29 05:56:25;;;;;;;6.32;2.20;;;;;;;20.83;43.89;100636.88;4997004;28;20029;-68
2022/07/29 05:58:51;;;;;;;5.55;2.40;;;;;;;21.09;43.44;100641.91;4997372;28;20022;-69
2022/07/29 06:01:17;;;;;;;7.20;2.50;;;;;;;21.28;43.52;100636.75;4997326;28;20026;-68
2022/07/29 06:03:42;;;;;;;6.55;2.33;;;;;;;21.45;42.70;100636.41;4997051;28;20018;-70
2022/07/29 06:06:08;;;;;;;3.75;2.00;;;;;;;21.61;42.27;100641.88;4995761;28;20050;-69
2022/07/29 06:08:34;;;;;;;4.03;1.90;;;;;;;21.74;41.93;100637.34;4997092;28;20026;-70
2022/07/29 06:11:00;;;;;;;3.70;1.75;;;;;;;21.86;41.53;100639.47;4995457;28;20448;-70
2022/07/29 06:13:26;;;;;;;4.75;1.92;;;;;;;22.02;41.74;100632.47;4996956;28;20031;-71
2022/07/29 06:15:51;;;;;;;13.73;2.35;;;;;;;22.24;41.21;100630.38;4996926;28;20058;-71
2022/07/29 06:18:16;;;;;;;7.13;2.05;;;;;;;22.47;39.85;100634.28;4996798;28;20018;-71
2022/07/29 06:20:42;;;;;;;4.15;2.08;;;;;;;22.60;40.23;100634.19;5010987;28;20042;-73
2022/07/29 06:23:07;;;;;;;4.95;2.13;;;;;;;22.80;40.00;100623.88;4994373;28;20026;-72
2022/07/29 06:25:35;;;;;;;7.88;2.40;;;;;;;23.03;39.75;100621.91;4993897;28;20033;-73
2022/07/29 06:28:00;;;;;;;3.40;1.90;;;;;;;23.32;38.26;100626.34;4994490;28;20433;-73
2022/07/29 06:30:26;;;;;;;5.72;1.70;;;;;;;23.74;39.01;100637.84;4995374;28;20037;-76
2022/07/29 06:32:51;;;;;;;6.45;2.15;;;;;;;24.12;36.99;100638.75;4993981;28;20030;-75
2022/07/29 06:35:17;;;;;;;2.53;1.48;;;;;;;24.48;36.11;100638.63;4994192;28;20018;-78
2022/07/29 06:37:42;;;;;;;7.70;2.38;;;;;;;24.69;35.41;100637.66;4995546;28;20113;-78
2022/07/29 06:42:52;;;;;;;8.13;2.08;;;;;;;25.73;34.89;100634.31;4995678;28;20383;-75
2022/07/29 06:45:17;;;;;;;7.43;2.92;;;;;;;26.79;33.40;100639.53;4995242;28;20023;-75
2022/07/29 06:47:43;;;;;;;5.40;1.75;;;;;;;28.26;30.69;100648.38;4995290;28;20073;-76
2022/07/29 06:50:12;;;;;;;11.02;2.22;;;;;;;29.98;28.84;100643.50;4998033;28;20017;-76
2022/07/29 06:52:40;;;;;;;3.40;1.80;;;;;;;31.07;27.16;100638.91;5002288;28;20472;-75
2022/07/29 06:55:06;;;;;;;12.95;2.88;;;;;;;31.29;26.24;100644.22;5000324;28;20061;-77
2022/07/29 06:57:32;;;;;;;2.83;1.30;;;;;;;31.06;25.74;100641.06;5015314;28;20033;-78
2022/07/29 07:00:00;;;;;;;8.50;2.13;;;;;;;30.69;25.58;100637.72;5016467;28;20061;-75
2022/07/29 07:02:26;;;;;;;7.82;2.30;;;;;;;30.30;26.03;100633.38;5014722;28;20057;-75
2022/07/29 07:04:52;;;;;;;4.57;1.73;;;;;;;29.98;26.95;100637.59;5004241;28;20037;-73
2022/07/29 07:07:17;;;;;;;7.50;2.00;;;;;;;29.71;27.32;100629.75;4994941;28;20034;-74
2022/07/29 07:09:43;;;;;;;7.82;1.60;;;;;;;29.76;27.11;100624.16;4993745;28;20184;-77
2022/07/29 07:12:08;;;;;;;12.48;3.05;;;;;;;29.82;27.33;100618.72;4994026;28;20109;-78
2022/07/29 07:14:34;;;;;;;9.48;2.88;;;;;;;29.85;27.07;100617.47;4992353;28;20026;-76
2022/07/29 07:17:00;;;;;;;3.20;1.60;;;;;;;31.00;26.27;100631.81;4993492;28;20375;-77
2022/07/29 07:21:49;;;;;;;6.18;2.33;;;;;;;34.84;22.90;100613.81;5109084;27;20396;-77
2022/07/29 07:24:14;;;;;;;2.75;1.35;;;;;;;36.40;19.70;100580.16;5107921;28;20071;-76
2022/07/29 07:26:40;;;;;;;9.02;1.80;;;;;;;36.69;19.98;100573.34;5108278;28;20023;-77
2022/07/29 07:29:05;;;;;;;1.48;1.02;;;;;;;36.27;19.31;100572.09;5109456;28;20024;-74
2022/07/29 07:31:31;;;;;;;1.73;0.93;;;;;;;35.61;19.43;100573.28;5109045;28;20111;-74
2022/07/29 07:33:56;;;;;;;3.20;1.30;;;;;;;34.90;20.90;100568.81;5109559;28;20095;-77
2022/07/29 07:36:23;;;;;;;4.43;1.48;;;;;;;34.26;21.33;100567.53;5110867;28;20529;-72
2022/07/29 07:38:48;;;;;;;7.47;1.50;;;;;;;33.41;22.44;100580.34;5110925;28;20578;-74
2022/07/29 07:41:14;;;;;;;3.70;1.77;;;;;;;32.49;22.96;100576.09;5109575;28;20016;-73
2022/07/29 07:43:39;;;;;;;5.10;1.75;;;;;;;31.82;24.05;100571.75;5110612;28;20048;-71
2022/07/29 07:46:05;;;;;;;2.75;1.17;;;;;;;31.50;24.82;100559.94;5109626;28;20449;-76
2022/07/29 07:48:30;;;;;;;5.38;1.60;;;;;;;31.53;24.59;100564.56;5109548;28;20042;-76
2022/07/29 07:50:56;;;;;;;3.05;1.20;;;;;;;32.41;24.29;100557.06;5109599;28;20473;-78
2022/07/29 07:53:22;;;;;;;6.70;1.80;;;;;;;33.40;23.18;100558.06;5092268;28;20036;-76
2022/07/29 07:55:47;;;;;;;4.40;1.58;;;;;;;33.36;22.87;100566.72;5109465;28;20035;-72
2022/07/29 07:58:13;;;;;;;1.30;1.20;;;;;;;32.59;22.89;100567.09;5109428;28;20031;-72
2022/07/29 08:00:38;;;;;;;1.90;1.50;;;;;;;31.58;24.55;100561.25;5108286;28;20027;-72
2022/07/29 08:03:04;;;;;;;2.08;1.30;;;;;;;30.98;25.31;100560.81;5109089;28;20040;-74
2022/07/29 08:05:29;;;;;;;4.78;1.45;;;;;;;30.71;25.61;100566.28;5110254;28;20039;-73
2022/07/29 08:07:55;;;;;;;4.05;1.63;;;;;;;30.70;25.87;100562.56;5110437;28;20035;-74
2022/07/29 08:13:06;;;;;;;4.45;1.98;;;;;;;31.19;25.36;100572.66;5110592;28;20078;-76
2022/07/29 08:15:32;;;;;;;3.67;1.67;;;;;;;31.54;25.79;100560.97;5110367;28;20023;-74
2022/07/29 08:17:57;;;;;;;2.63;1.38;;;;;;;31.98;25.05;100557.28;5110442;28;20023;-81
2022/07/29 08:20:22;;;;;;;1.90;1.48;;;;;;;32.54;24.73;100548.28;5108810;28;20400;-74
2022/07/29 08:22:48;;;;;;;6.57;1.33;;;;;;;33.31;23.69;100543.41;5110360;28;20034;-74
2022/07/29 08:25:13;;;;;;;8.55;1.55;;;;;;;33.14;22.84;100555.69;5110238;28;20032;-77
2022/07/29 08:27:39;;;;;;;1.85;1.17;;;;;;;32.51;23.72;100552.56;5107313;28;20023;-73
2022/07/29 08:30:05;;;;;;;1.73;1.30;;;;;;;31.81;24.49;100551.69;5100686;28;20464;-76
2022/07/29 08:32:31;;;;;;;2.97;1.30;;;;;;;31.55;24.66;100553.63;5093639;28;20145;-74
2022/07/29 08:34:56;;;;;;;3.75;1.65;;;;;;;31.40;25.29;100562.97;5085567;28;20040;-72
2022/07/29 08:37:22;;;;;;;3.42;1.60;;;;;;;31.08;25.47;100561.50;5086591;28;20025;-76
2022/07/29 08:39:47;;;;;;;9.73;1.58;;;;;;;31.03;25.82;100568.53;5086571;28;20434;-74
2022/07/29 08:42:13;;;;;;;4.50;1.70;;;;;;;30.93;26.46;100558.97;5082404;28;20427;-74
2022/07/29 08:44:39;;;;;;;2.17;1.35;;;;;;;30.70;26.42;100549.97;5079712;28;20044;-74
2022/07/29 08:47:04;;;;;;;4.18;1.67;;;;;;;30.34;26.64;100554.78;5075134;28;20380;-77
2022/07/29 08:49:32;;;;;;;3.35;1.58;;;;;;;29.89;27.16;100553.69;5075244;28;20097;-75
2022/07/29 08:51:58;;;;;;;10.95;3.00;;;;;;;29.77;27.80;100546.16;5075419;28;20024;-77
2022/07/29 08:54:24;;;;;;;7.57;2.60;;;;;;;30.00;27.35;100541.25;5073944;28;20039;-74
2022/07/29 08:56:51;;;;;;;4.13;1.65;;;;;;;30.44;27.41;100540.78;5073992;28;20475;-76
2022/07/29 08:59:20;;;;;;;3.15;1.27;;;;;;;31.18;26.30;100540.78;5074511;28;20089;-76
2022/07/29 09:01:46;;;;;;;11.90;2.50;;;;;;;32.16;25.38;100543.66;5073959;28;20024;-75
2022/07/29 09:04:13;;;;;;;3.30;1.60;;;;;;;32.90;24.25;100549.81;5073704;28;20036;-78
2022/07/29 09:06:43;;;;;;;1.52;1.40;;;;;;;33.18;24.39;100541.16;5074011;28;20024;-74
2022/07/29 09:09:09;;;;;;;15.60;2.88;;;;;;;33.20;23.60;100536.13;5056839;28;20032;-76
2022/07/29 09:11:34;;;;;;;4.97;1.80;;;;;;;33.32;23.37;100536.84;5088586;28;20042;-73
2022/07/29 09:14:00;;;;;;;3.75;1.58;;;;;;;33.45;23.68;100533.16;5092781;28;20405;-74
2022/07/29 09:16:25;;;;;;;7.30;1.95;;;;;;;33.43;23.59;100530.06;5093887;28;20027;-74
2022/07/29 09:18:51;;;;;;;10.20;2.08;;;;;;;33.96;23.31;100533.16;5094908;28;20554;-74
2022/07/29 09:24:11;;;;;;;12.38;2.92;;;;;;;34.29;22.45;100518.72;5094407;28;20166;-75
2022/07/29 09:26:39;;;;;;;10.82;2.78;;;;;;;34.30;22.85;100523.25;5094818;28;20031;-74
2022/07/29 09:29:10;;;;;;;5.15;2.17;;;;;;;33.85;22.98;100528.06;5093779;28;20036;-75
2022/07/29 09:31:37;;;;;;;11.07;2.75;;;;;;;33.58;23.14;100537.59;5094111;28;20023;-73
2022/07/29 09:34:03;;;;;;;5.03;1.30;;;;;;;33.15;23.08;100536.47;5095280;28;20055;-72
2022/07/29 09:36:29;;;;;;;1.83;1.60;;;;;;;32.61;24.01;100523.59;5095321;28;20052;-75
2022/07/29 09:39:02;;;;;;;2.38;1.63;;;;;;;31.92;25.00;100524.34;5093862;28;20016;-73
2022/07/29 09:41:27;;;;;;;10.77;2.78;;;;;;;31.55;25.71;100520.38;5093561;28;20024;-75
2022/07/29 09:43:56;;;;;;;9.35;2.20;;;;;;;31.21;26.06;100513.69;5092836;28;20384;-72
2022/07/29 09:46:21;;;;;;;11.95;2.28;;;;;;;30.93;27.12;100515.47;5092609;28;20534;-72
2022/07/29 09:49:09;;;;;;;15.93;3.20;;;;;;;30.54;27.17;100517.13;5093120;28;20017;-74
2022/07/29 09:51:36;;;;;;;12.50;2.90;;;;;;;30.24;27.98;100515.72;5093676;28;20020;-74
2022/07/29 09:54:27;;;;;;;10.65;2.42;;;;;;;29.87;28.63;100508.59;5093530;28;20393;-79
2022/07/29 09:56:54;;;;;;;15.98;3.70;;;;;;;29.39;29.00;100502.75;5077437;28;20039;-74
2022/07/29 09:59:24;;;;;;;9.88;2.10;;;;;;;29.22;29.50;100500.78;5093969;28;20024;-76
2022/07/29 10:01:49;;;;;;;7.88;2.08;;;;;;;29.20;29.53;100524.94;5094167;28;20035;-75
2022/07/29 10:04:15;;;;;;;10.75;2.53;;;;;;;29.10;29.40;100499.84;5075357;28;20035;-74
2022/07/29 10:07:01;;;;;;;7.78;2.45;;;;;;;28.81;30.51;100494.72;5093248;28;20508;-75
2022/07/29 10:09:33;;;;;;;9.10;1.98;;;;;;;28.80;30.04;100490.22;5094727;28;20114;-76
2022/07/29 10:12:16;;;;;;;7.88;3.33;;;;;;;28.97;30.62;100494.41;5093573;28;20020;-79
2022/07/29 10:14:43;;;;;;;3.67;2.10;;;;;;;29.01;30.07;100491.78;5095687;28;20449;-75
2022/07/29 10:17:10;;;;;;;5.88;1.92;;;;;;;29.00;30.08;100490.22;5094627;28;20040;-75
2022/07/29 10:19:39;;;;;;;11.13;3.92;;;;;;;28.85;30.00;100492.09;5073841;28;20032;-72
2022/07/29 10:22:07;;;;;;;4.47;1.90;;;;;;;28.74;30.28;100483.09;5093576;28;20039;-68
2022/07/29 10:24:35;;;;;;;8.23;2.30;;;;;;;28.69;29.92;100493.00;5085070;28;20040;-73
2022/07/29 10:27:02;;;;;;;60.83;11.10;;;;;;;28.68;30.19;100483.41;5055895;28;20119;-73
2022/07/29 10:29:31;;;;;;;7.95;2.45;;;;;;;28.72;30.80;100489.59;5085647;28;20081;-68
2022/07/29 10:32:34;;;;;;;9.30;2.28;;;;;;;28.87;30.67;100482.66;5084600;28;20052;-73
2022/07/29 10:35:20;;;;;;;7.85;2.33;;;;;;;28.97;30.34;100488.53;5085747;28;20116;-73
2022/07/29 10:37:52;;;;;;;4.40;2.00;;;;;;;29.22;29.92;100480.19;5083859;28;20031;-73
2022/07/29 10:43:32;;;;;;;;;;;;;;;29.67;29.57;100476.22;5075072;28;20047;-79
2022/07/29 10:46:00;;;;;;;21.52;5.68;;;;;;;29.64;29.44;100477.47;5075424;28;19939;-82
2022/07/29 10:48:26;;;;;;;5.53;2.92;;;;;;;29.61;29.45;100469.13;5088724;28;20028;-88
2022/07/29 10:50:56;;;;;;;4.00;2.00;;;;;;;29.88;29.82;100474.75;5090177;28;20704;-78
2022/07/29 10:53:23;;;;;;;8.45;2.90;;;;;;;30.05;28.62;100475.28;5093035;28;20053;-84
2022/07/29 10:55:50;;;;;;;3.58;2.13;;;;;;;30.01;28.99;100475.00;5091843;28;20039;-83
2022/07/29 10:58:23;;;;;;;12.57;2.53;;;;;;;30.14;29.24;100476.66;5092087;28;20031;-69
2022/07/29 11:00:51;;;;;;;7.88;2.28;;;;;;;30.31;28.61;100475.66;5092802;28;20473;-75
2022/07/29 11:03:45;;;;;;;6.20;2.42;;;;;;;30.52;28.37;100479.38;5093093;28;20048;-77
2022/07/29 11:06:12;;;;;;;7.38;2.15;;;;;;;30.43;28.41;100477.28;5093239;28;20043;-71
2022/07/29 11:08:45;;;;;;;6.35;2.10;;;;;;;30.40;28.31;100465.97;5082025;28;20499;-74
2022/07/29 11:11:20;;;;;;;2.80;2.15;;;;;;;30.29;28.40;100478.44;5093144;28;20036;-81
2022/07/29 11:13:47;;;;;;;6.70;2.67;;;;;;;30.08;28.67;100468.13;5092963;28;20043;-77
2022/07/29 11:16:14;;;;;;;7.13;2.05;;;;;;;30.01;29.15;100486.03;5092815;28;20043;-77
2022/07/29 11:19:14;;;;;;;2.42;1.70;;;;;;;30.16;28.61;100467.19;5074903;28;20040;-77
2022/07/29 11:21:46;;;;;;;9.50;2.58;;;;;;;30.32;28.21;100468.34;5090287;28;20489;-75
2022/07/29 11:24:18;;;;;;;7.57;2.60;;;;;;;30.49;28.34;100480.66;5092545;28;20358;-76
2022/07/29 11:26:44;;;;;;;24.50;3.95;;;;;;;30.54;27.99;100466.97;5092757;28;20038;-76
2022/07/29 11:29:21;;;;;;;7.50;1.60;;;;;;;29.97;28.36;100480.59;5091874;28;20063;-75
2022/07/29 11:31:54;;;;;;;23.23;4.25;;;;;;;29.51;29.22;100469.13;5090964;28;20560;-77
2022/07/29 11:34:27;;;;;;;9.07;2.35;;;;;;;29.20;28.97;100474.91;5089610;28;20115;-77
2022/07/29 11:37:13;;;;;;;13.65;3.83;;;;;;;29.07;30.42;100474.63;5092004;28;20031;-75
2022/07/29 11:39:52;;;;;;;4.40;2.45;;;;;;;29.25;29.73;100473.03;5073947;28;20048;-77
2022/07/29 11:42:23;;;;;;;5.38;1.98;;;;;;;29.31;29.52;100470.56;5075405;28;20039;-75
2022/07/29 11:45:05;;;;;;;2.65;1.67;;;;;;;29.45;28.98;100470.81;5090253;28;20310;-73
2022/07/29 11:47:32;;;;;;;5.72;1.63;;;;;;;29.49;29.14;100477.00;5091979;28;20061;-74
2022/07/29 11:49:59;;;;;;;4.88;2.10;;;;;;;29.43;28.50;100473.63;5091183;28;20024;-80